PADK/ADK METAR and TAF weather

Enter ICAO airport designator
Station Type Date Time Source
PADK METAR 2020/01/29 03:31 UTC NOAA

PADK 290331Z AUTO 06015G20KT 4SM -SN FEW006 SCT023 BKN031 M01/M04 A2988 RMK AO2 UPB16E18SNE07B18 P0000 FZRANO


Station Type Date Time Source
PADK Decoded METAR 2020/01/29 03:31 UTC NOAA

Adak Island, Adak Airport, AK, United States (PADK) 51-52-40N 176-38-45W 4M
Jan 28, 2020 - 10:31 PM EST / 2020.01.29 0331 UTC
Wind: from the ENE (060 degrees) at 17 MPH (15 KT) gusting to 23 MPH (20 KT):0
Visibility: 4 mile(s):0
Sky conditions: mostly cloudy
Weather: light snow
Precipitation last hour: A trace
Temperature: 30 F (-1 C)
Windchill: 17 F (-8 C):1
Dew Point: 24 F (-4 C)
Relative Humidity: 80%
Pressure (altimeter): 29.88 in. Hg (1011 hPa)
ob: PADK 290331Z AUTO 06015G20KT 4SM -SN FEW006 SCT023 BKN031 M01/M04 A2988 RMK AO2 UPB16E18SNE07B18 P0000 FZRANO
cycle: 3

Station Type Date Time Source
PADK TAF 2007/04/07 12:54 UTC NOAA

TAF PADK 070404 33010G15KT 9999 FEW025 BKN030 OVC050 QNH2900INS T03/00Z TM01/18Z COR 1205 LAST NO
AMDS AFT 0712;

Example: see airport list